Time;durP1;ratioP1;P1;durP2;ratioP2;P2;SDS_P1;SDS_P2;PMS_P1;PMS_P2;Temp;Humidity;BMP_temperature;BMP_pressure;BME280_temperature;BME280_humidity;BME280_pressure;Samples;Min_cycle;Max_cycle;Signal;HPM_P1;HPM_P2
2024/01/23 00:01:19;;;;;;;5.90;1.55;;;6.20;99.90;;;;;;4943798;28;20019;-65
2024/01/23 00:03:44;;;;;;;8.77;2.08;;;6.10;99.90;;;;;;4944500;28;20098;-66
2024/01/23 00:06:10;;;;;;;8.13;1.33;;;6.20;99.90;;;;;;4947072;28;20070;-65
2024/01/23 00:08:36;;;;;;;5.53;1.58;;;6.20;99.90;;;;;;4954866;28;20035;-64
2024/01/23 00:11:01;;;;;;;6.68;1.70;;;6.20;99.90;;;;;;4945090;28;20066;-64
2024/01/23 00:13:27;;;;;;;10.52;1.92;;;6.10;99.90;;;;;;4946796;28;20122;-65
2024/01/23 00:15:52;;;;;;;8.60;1.42;;;6.10;99.90;;;;;;4949739;28;20094;-65
2024/01/23 00:18:18;;;;;;;7.38;2.08;;;6.00;99.90;;;;;;4946369;28;20651;-65
2024/01/23 00:20:46;;;;;;;4.45;1.45;;;6.00;99.90;;;;;;4945262;28;20039;-65
2024/01/23 00:23:12;;;;;;;13.98;1.92;;;6.00;99.90;;;;;;4949764;28;20211;-65
2024/01/23 00:25:38;;;;;;;3.67;1.38;;;6.00;99.90;;;;;;4946738;28;20094;-64
2024/01/23 00:28:05;;;;;;;8.63;1.83;;;6.00;99.90;;;;;;4947366;28;20950;-64
2024/01/23 00:30:31;;;;;;;5.47;1.48;;;6.00;99.90;;;;;;4927680;28;20115;-66
2024/01/23 00:32:58;;;;;;;4.72;1.40;;;6.10;99.90;;;;;;4922624;29;20136;-64
2024/01/23 00:35:24;;;;;;;10.32;1.80;;;6.10;99.90;;;;;;4933144;28;20042;-65
2024/01/23 00:37:49;;;;;;;4.72;1.25;;;6.00;99.90;;;;;;4954756;28;20027;-66
2024/01/23 00:40:15;;;;;;;3.42;1.30;;;6.10;99.90;;;;;;4931440;28;20024;-64
2024/01/23 00:42:41;;;;;;;5.22;1.65;;;6.00;99.90;;;;;;4943936;28;20051;-64
2024/01/23 00:45:06;;;;;;;9.85;1.95;;;6.00;99.90;;;;;;4946798;28;20031;-65
2024/01/23 00:47:32;;;;;;;9.35;1.60;;;6.10;99.90;;;;;;4953567;28;20027;-65
2024/01/23 00:49:58;;;;;;;2.80;1.20;;;6.10;99.90;;;;;;4949368;28;20435;-66
2024/01/23 00:52:23;;;;;;;7.28;1.35;;;6.10;99.90;;;;;;4952249;28;20047;-65
2024/01/23 00:54:49;;;;;;;8.25;1.65;;;6.10;99.90;;;;;;4944528;28;20159;-64
2024/01/23 00:57:15;;;;;;;8.18;1.90;;;6.20;99.90;;;;;;4954121;28;20369;-66
2024/01/23 00:59:40;;;;;;;4.05;1.20;;;6.20;99.90;;;;;;4945512;28;20034;-65
2024/01/23 01:02:06;;;;;;;5.32;1.30;;;6.20;99.90;;;;;;4946854;28;20027;-65
2024/01/23 01:04:32;;;;;;;5.38;1.48;;;6.20;99.90;;;;;;4950557;28;20043;-65
2024/01/23 01:06:57;;;;;;;11.57;1.30;;;6.20;99.90;;;;;;4951789;28;20424;-63
2024/01/23 01:09:23;;;;;;;10.93;1.65;;;6.20;99.90;;;;;;4946906;28;20042;-64
2024/01/23 01:11:48;;;;;;;4.78;1.60;;;6.20;99.90;;;;;;4947992;28;20106;-65
2024/01/23 01:14:14;;;;;;;5.18;1.17;;;6.20;99.90;;;;;;4948189;28;20030;-64
2024/01/23 01:16:40;;;;;;;5.18;1.65;;;6.30;99.90;;;;;;4951632;28;20514;-64
2024/01/23 01:19:05;;;;;;;6.00;1.33;;;6.30;99.90;;;;;;4947430;28;20050;-64
2024/01/23 01:21:31;;;;;;;4.78;1.02;;;6.20;99.90;;;;;;4950133;28;20031;-64
2024/01/23 01:23:57;;;;;;;9.80;1.30;;;6.20;99.90;;;;;;4953830;28;20537;-65
2024/01/23 01:26:22;;;;;;;6.97;1.48;;;6.20;99.90;;;;;;4950052;28;20070;-64
2024/01/23 01:28:48;;;;;;;4.95;1.55;;;6.10;99.90;;;;;;4950260;28;20015;-64
2024/01/23 01:31:14;;;;;;;7.88;1.08;;;6.10;99.90;;;;;;4950832;28;20352;-64
2024/01/23 01:33:39;;;;;;;3.42;0.70;;;6.10;99.90;;;;;;4948746;28;20035;-65
2024/01/23 01:36:05;;;;;;;3.20;0.73;;;6.20;99.90;;;;;;4944154;28;20038;-64
2024/01/23 01:38:31;;;;;;;3.33;1.20;;;6.20;99.90;;;;;;4945883;28;20062;-64
2024/01/23 01:40:58;;;;;;;13.13;2.47;;;6.20;99.90;;;;;;4944736;28;20007;-65
2024/01/23 01:43:26;;;;;;;4.85;1.30;;;6.20;99.90;;;;;;4945950;28;20222;-64
2024/01/23 01:46:11;;;;;;;3.05;1.00;;;6.20;99.90;;;;;;4947232;28;20046;-64
2024/01/23 01:48:41;;;;;;;6.53;1.65;;;6.20;99.90;;;;;;4948200;28;20707;-64
2024/01/23 01:51:07;;;;;;;6.03;0.88;;;6.20;99.90;;;;;;4948699;28;20421;-64
2024/01/23 01:53:34;;;;;;;8.48;1.33;;;6.10;99.90;;;;;;4949235;28;20118;-64
2024/01/23 01:56:01;;;;;;;3.35;0.90;;;6.20;99.90;;;;;;4945485;28;20027;-65
2024/01/23 01:58:30;;;;;;;4.88;1.02;;;6.20;99.90;;;;;;4963086;28;20019;-64
2024/01/23 02:00:57;;;;;;;3.78;0.93;;;6.30;99.90;;;;;;4944059;28;20033;-64
2024/01/23 02:03:23;;;;;;;10.68;2.13;;;6.20;99.90;;;;;;4947133;28;20110;-65
2024/01/23 02:05:50;;;;;;;14.73;1.10;;;6.20;99.90;;;;;;4945686;28;20125;-64
2024/01/23 02:08:16;;;;;;;4.60;0.90;;;6.20;99.90;;;;;;4946972;28;20074;-65
2024/01/23 02:10:43;;;;;;;5.18;1.20;;;6.20;99.90;;;;;;4949250;28;20030;-64
2024/01/23 02:13:08;;;;;;;6.57;3.30;;;6.10;99.90;;;;;;4961013;28;20500;-64
2024/01/23 02:15:34;;;;;;;5.53;2.50;;;6.00;99.90;;;;;;4944993;28;20086;-64
2024/01/23 02:18:00;;;;;;;5.28;1.08;;;6.00;99.90;;;;;;4949308;28;20032;-63
2024/01/23 02:20:26;;;;;;;7.90;1.77;;;6.00;99.90;;;;;;4945871;28;20081;-64
2024/01/23 02:22:53;;;;;;;4.45;1.35;;;6.00;99.90;;;;;;4949139;28;20385;-64
2024/01/23 02:25:18;;;;;;;4.75;0.98;;;6.10;99.90;;;;;;4948365;28;20089;-64
2024/01/23 02:27:44;;;;;;;6.80;1.60;;;6.10;99.90;;;;;;4946951;28;20043;-64
2024/01/23 02:30:10;;;;;;;7.47;1.65;;;6.10;99.90;;;;;;4957426;28;20475;-63
2024/01/23 02:32:36;;;;;;;3.97;0.80;;;6.00;99.90;;;;;;4957566;28;20023;-64
2024/01/23 02:35:02;;;;;;;3.85;1.20;;;6.00;99.90;;;;;;4947756;28;20533;-63
2024/01/23 02:37:27;;;;;;;7.93;1.85;;;6.00;99.90;;;;;;4947461;28;20031;-63
2024/01/23 02:39:53;;;;;;;2.85;1.20;;;5.90;99.90;;;;;;4947136;28;20038;-65
2024/01/23 02:42:19;;;;;;;5.82;1.13;;;5.80;99.90;;;;;;4949966;28;20664;-65
2024/01/23 02:44:47;;;;;;;2.67;0.93;;;5.80;99.90;;;;;;4949164;28;20079;-65
2024/01/23 02:47:13;;;;;;;6.60;1.42;;;5.80;99.90;;;;;;4945492;28;20093;-64
2024/01/23 02:49:39;;;;;;;4.35;0.90;;;5.90;99.90;;;;;;4948481;28;20098;-63
2024/01/23 02:52:04;;;;;;;3.30;1.00;;;5.90;99.90;;;;;;4948896;28;20023;-64
2024/01/23 02:54:31;;;;;;;6.13;1.98;;;5.90;99.90;;;;;;4945938;28;20146;-65
2024/01/23 02:56:56;;;;;;;3.55;0.90;;;5.80;99.90;;;;;;4948114;28;20035;-64
2024/01/23 02:59:22;;;;;;;3.78;1.00;;;5.70;99.90;;;;;;4947798;28;20028;-64
2024/01/23 03:01:48;;;;;;;5.32;0.70;;;5.70;99.90;;;;;;4946001;28;20373;-64
2024/01/23 03:04:14;;;;;;;2.53;0.70;;;5.70;99.90;;;;;;4947178;28;20039;-64
2024/01/23 03:06:40;;;;;;;1.40;0.55;;;5.70;99.90;;;;;;4948003;28;20027;-64
2024/01/23 03:09:10;;;;;;;2.92;0.60;;;5.60;99.90;;;;;;4948536;28;20031;-62
2024/01/23 03:11:37;;;;;;;2.30;0.60;;;5.60;99.90;;;;;;4948309;28;20031;-63
2024/01/23 03:14:03;;;;;;;3.90;0.60;;;5.60;99.90;;;;;;4949055;28;20297;-65
2024/01/23 03:16:29;;;;;;;4.88;0.70;;;5.60;99.90;;;;;;4945223;28;20436;-64
2024/01/23 03:18:55;;;;;;;3.63;1.25;;;5.60;99.90;;;;;;4948892;28;20055;-64
2024/01/23 03:21:20;;;;;;;3.38;0.85;;;5.60;99.90;;;;;;4947993;28;20066;-63
2024/01/23 03:23:46;;;;;;;2.85;0.68;;;5.70;99.90;;;;;;4944383;28;20712;-66
2024/01/23 03:26:11;;;;;;;7.10;1.20;;;5.70;99.90;;;;;;4947496;28;20526;-64
2024/01/23 03:28:37;;;;;;;4.47;1.15;;;5.70;99.90;;;;;;4948628;28;20031;-64
2024/01/23 03:31:06;;;;;;;4.15;1.15;;;5.80;99.90;;;;;;4948413;28;20483;-65
2024/01/23 03:33:32;;;;;;;11.57;2.00;;;5.70;99.90;;;;;;4947266;28;20146;-64
2024/01/23 03:35:58;;;;;;;3.55;1.00;;;5.70;99.90;;;;;;4946693;28;20028;-65
2024/01/23 03:38:24;;;;;;;5.82;1.33;;;5.70;99.90;;;;;;4947332;28;20062;-64
2024/01/23 03:40:49;;;;;;;4.72;1.08;;;5.70;99.90;;;;;;4946276;28;20475;-65
2024/01/23 03:43:15;;;;;;;6.40;1.23;;;5.70;99.90;;;;;;4944753;28;20024;-65
2024/01/23 03:45:41;;;;;;;7.65;1.35;;;5.80;99.90;;;;;;4947170;28;20035;-64
2024/01/23 03:48:07;;;;;;;6.55;1.23;;;5.70;99.90;;;;;;4932604;28;20115;-65
2024/01/23 03:50:33;;;;;;;10.90;1.30;;;5.70;99.90;;;;;;4942764;28;20555;-65
2024/01/23 03:52:58;;;;;;;6.03;1.50;;;5.60;99.90;;;;;;4944774;28;20027;-64
2024/01/23 03:55:25;;;;;;;15.15;3.33;;;5.70;99.90;;;;;;4945817;28;20372;-64
2024/01/23 03:57:51;;;;;;;5.40;2.03;;;5.70;99.90;;;;;;4944081;28;20035;-65
2024/01/23 04:00:17;;;;;;;10.73;1.42;;;5.70;99.90;;;;;;4945404;28;20440;-65
2024/01/23 04:02:43;;;;;;;5.30;1.45;;;5.80;99.90;;;;;;4940706;28;20496;-64
2024/01/23 04:05:09;;;;;;;7.53;1.42;;;5.80;99.90;;;;;;4926710;28;20063;-63
2024/01/23 04:07:35;;;;;;;3.53;1.10;;;5.80;99.90;;;;;;4941728;28;20023;-64
2024/01/23 04:10:02;;;;;;;4.50;1.20;;;5.80;99.90;;;;;;4945191;28;20058;-64
2024/01/23 04:12:28;;;;;;;5.68;1.95;;;5.80;99.90;;;;;;4947552;28;20029;-64
2024/01/23 04:14:53;;;;;;;12.20;2.10;;;5.80;99.90;;;;;;4947686;28;20106;-63
2024/01/23 04:17:19;;;;;;;3.47;1.00;;;5.80;99.90;;;;;;4948414;28;20099;-63
2024/01/23 04:19:45;;;;;;;3.60;1.17;;;5.80;99.90;;;;;;4948382;28;20027;-64
2024/01/23 04:22:11;;;;;;;5.45;1.10;;;5.70;99.90;;;;;;4947598;28;20483;-65
2024/01/23 04:24:37;;;;;;;4.18;1.15;;;5.60;99.90;;;;;;4949121;28;20058;-65
2024/01/23 04:27:04;;;;;;;2.92;1.13;;;5.50;99.90;;;;;;4951710;28;20028;-64
2024/01/23 04:29:30;;;;;;;7.10;1.35;;;5.50;99.90;;;;;;4950674;28;20027;-63
2024/01/23 04:31:55;;;;;;;7.78;2.05;;;5.40;99.90;;;;;;4950180;28;20053;-63
2024/01/23 04:34:21;;;;;;;5.50;1.98;;;5.40;99.90;;;;;;4950729;28;20034;-64
2024/01/23 04:36:48;;;;;;;4.60;0.98;;;5.40;99.90;;;;;;4949453;28;20511;-65
2024/01/23 04:39:14;;;;;;;9.13;1.20;;;5.50;99.90;;;;;;4952116;28;20032;-64
2024/01/23 04:41:40;;;;;;;4.60;0.93;;;5.60;99.90;;;;;;4951290;28;20027;-64
2024/01/23 04:44:05;;;;;;;6.97;1.13;;;5.60;99.90;;;;;;4948852;28;20508;-65
2024/01/23 04:46:31;;;;;;;4.55;1.10;;;5.60;99.90;;;;;;4957233;28;20020;-64
2024/01/23 04:48:56;;;;;;;7.93;1.10;;;5.70;99.90;;;;;;4951702;28;20503;-65
2024/01/23 04:51:22;;;;;;;5.20;1.15;;;5.70;99.90;;;;;;4948826;28;20487;-64
2024/01/23 04:53:51;;;;;;;9.40;1.65;;;5.80;99.90;;;;;;4954079;28;20081;-65
2024/01/23 04:56:17;;;;;;;4.97;2.08;;;5.80;99.90;;;;;;4952093;28;20078;-65
2024/01/23 04:58:42;;;;;;;6.68;1.02;;;5.90;99.90;;;;;;4952047;28;20019;-64
2024/01/23 05:01:08;;;;;;;4.07;0.90;;;5.90;99.90;;;;;;4947681;28;20514;-63
2024/01/23 05:03:34;;;;;;;4.72;1.52;;;6.00;99.90;;;;;;4950062;28;20110;-64
2024/01/23 05:05:59;;;;;;;4.03;0.70;;;6.00;99.90;;;;;;4947343;28;20035;-66
2024/01/23 05:08:25;;;;;;;3.13;0.50;;;5.90;99.90;;;;;;4948348;28;20065;-65
2024/01/23 05:10:51;;;;;;;3.80;1.05;;;5.10;99.90;;;;;;4947036;28;20395;-65
2024/01/23 05:13:16;;;;;;;1.42;0.50;;;4.60;99.90;;;;;;4949851;28;20047;-66
2024/01/23 05:15:42;;;;;;;3.45;0.75;;;4.30;99.90;;;;;;4947132;28;20027;-66
2024/01/23 05:18:08;;;;;;;2.08;0.50;;;4.00;99.90;;;;;;4948162;28;20102;-65
2024/01/23 05:20:34;;;;;;;4.70;0.57;;;3.90;99.90;;;;;;4948734;28;20046;-66
2024/01/23 05:23:01;;;;;;;1.40;0.30;;;3.70;99.90;;;;;;4950753;28;20420;-66
2024/01/23 05:25:26;;;;;;;0.85;0.50;;;3.50;99.90;;;;;;4950382;28;20447;-66
2024/01/23 05:27:52;;;;;;;0.35;0.35;;;3.30;99.90;;;;;;4948382;28;20110;-67
2024/01/23 05:30:18;;;;;;;0.32;0.30;;;3.20;99.90;;;;;;4950560;28;20034;-67
2024/01/23 05:32:44;;;;;;;0.30;0.30;;;3.10;99.90;;;;;;4947232;28;20031;-67
2024/01/23 05:35:10;;;;;;;0.20;0.20;;;3.00;99.90;;;;;;4945952;28;20023;-67
2024/01/23 05:37:36;;;;;;;0.43;0.30;;;2.90;99.90;;;;;;4949524;28;20137;-68
2024/01/23 05:40:03;;;;;;;0.28;0.28;;;2.70;99.90;;;;;;4951603;28;20031;-66
2024/01/23 05:42:29;;;;;;;1.52;0.60;;;2.50;99.90;;;;;;4953598;28;20054;-67
2024/01/23 05:44:56;;;;;;;1.25;0.60;;;2.40;99.90;;;;;;4948660;28;20039;-67
2024/01/23 05:47:21;;;;;;;2.22;0.80;;;2.40;99.90;;;;;;4948743;28;20046;-66
2024/01/23 05:49:47;;;;;;;1.60;0.45;;;2.40;99.90;;;;;;4953980;28;20023;-67
2024/01/23 05:52:13;;;;;;;3.63;0.98;;;2.40;99.90;;;;;;4946107;28;20043;-66
2024/01/23 05:54:41;;;;;;;1.35;0.50;;;2.40;99.90;;;;;;4950442;28;20491;-66
2024/01/23 05:57:10;;;;;;;1.40;1.00;;;2.40;99.90;;;;;;4948593;28;20038;-66
2024/01/23 05:59:35;;;;;;;1.45;0.40;;;2.40;99.90;;;;;;4947984;28;20062;-66
2024/01/23 06:02:02;;;;;;;0.60;0.30;;;2.40;99.90;;;;;;4947493;28;20059;-66
2024/01/23 06:04:28;;;;;;;1.00;0.30;;;2.30;99.90;;;;;;4947048;28;20077;-66
2024/01/23 06:06:54;;;;;;;1.27;0.65;;;2.20;99.90;;;;;;4949541;28;20542;-67
2024/01/23 06:09:19;;;;;;;2.33;0.40;;;2.20;99.90;;;;;;4951484;28;20542;-66
2024/01/23 06:11:45;;;;;;;2.53;1.20;;;2.20;99.90;;;;;;4950078;28;20082;-67
2024/01/23 06:14:10;;;;;;;1.75;1.23;;;2.10;99.90;;;;;;4951699;28;20050;-66
2024/01/23 06:16:37;;;;;;;1.15;0.90;;;2.10;99.90;;;;;;4951158;28;20608;-67
2024/01/23 06:19:06;;;;;;;1.92;1.50;;;2.10;99.90;;;;;;4947434;28;20098;-66
2024/01/23 06:21:31;;;;;;;4.55;1.50;;;2.10;99.90;;;;;;4952405;28;20387;-66
2024/01/23 06:23:57;;;;;;;2.22;1.10;;;2.10;99.90;;;;;;4951544;28;20035;-66
2024/01/23 06:26:23;;;;;;;4.35;0.90;;;2.10;99.90;;;;;;4949186;28;20042;-66
2024/01/23 06:28:49;;;;;;;1.52;0.90;;;2.20;99.90;;;;;;4952295;28;20399;-67
2024/01/23 06:31:15;;;;;;;3.17;1.10;;;2.20;99.90;;;;;;4947071;28;20027;-66
2024/01/23 06:33:40;;;;;;;2.88;1.17;;;2.10;99.90;;;;;;4954756;28;20027;-65
2024/01/23 06:36:06;;;;;;;2.55;1.08;;;2.10;99.90;;;;;;4947647;28;20750;-68
2024/01/23 06:38:32;;;;;;;1.30;1.00;;;2.00;99.90;;;;;;4942951;28;20035;-66
2024/01/23 06:40:58;;;;;;;2.17;0.80;;;1.90;99.90;;;;;;4949069;28;20031;-67
2024/01/23 06:43:24;;;;;;;5.80;2.85;;;1.90;99.90;;;;;;4949711;28;20031;-66
2024/01/23 06:45:49;;;;;;;5.85;4.15;;;1.80;99.90;;;;;;4948242;28;20393;-65
2024/01/23 06:48:15;;;;;;;5.20;4.05;;;1.80;99.90;;;;;;4947488;28;20122;-65
2024/01/23 06:50:41;;;;;;;3.53;1.85;;;1.80;99.90;;;;;;4948913;28;20034;-66
2024/01/23 06:53:07;;;;;;;2.33;1.50;;;1.70;99.90;;;;;;4950499;28;20034;-66
2024/01/23 06:55:32;;;;;;;3.78;1.23;;;1.70;99.90;;;;;;4949179;28;20663;-66
2024/01/23 06:57:58;;;;;;;2.53;1.05;;;1.60;99.90;;;;;;4950363;28;20098;-65
2024/01/23 07:00:23;;;;;;;2.47;1.30;;;1.60;99.90;;;;;;4948261;28;20027;-66
2024/01/23 07:02:49;;;;;;;1.27;0.80;;;1.50;99.90;;;;;;4948333;28;20028;-67
2024/01/23 07:05:15;;;;;;;3.45;2.25;;;1.50;99.90;;;;;;4946254;28;20111;-67
2024/01/23 07:07:42;;;;;;;10.95;3.85;;;1.40;99.90;;;;;;4948749;28;20078;-66
2024/01/23 07:10:08;;;;;;;41.38;18.73;;;1.40;99.90;;;;;;4948944;28;20069;-64
2024/01/23 07:12:34;;;;;;;63.60;27.13;;;1.40;99.90;;;;;;4946630;28;20483;-65
2024/01/23 07:14:59;;;;;;;11.15;6.30;;;1.50;99.90;;;;;;4949372;28;20027;-65
2024/01/23 07:17:25;;;;;;;7.28;3.90;;;1.60;99.90;;;;;;4947533;28;20042;-65
2024/01/23 07:19:51;;;;;;;8.30;1.55;;;1.60;99.90;;;;;;4949224;28;20538;-66
2024/01/23 07:22:17;;;;;;;7.82;2.05;;;1.80;99.90;;;;;;4949987;28;20031;-66
2024/01/23 07:24:43;;;;;;;12.85;4.18;;;2.10;99.90;;;;;;4949100;28;20111;-65
2024/01/23 07:27:08;;;;;;;10.65;1.88;;;2.50;99.90;;;;;;4945055;28;20487;-65
2024/01/23 07:29:35;;;;;;;15.85;6.65;;;2.80;99.90;;;;;;4947587;28;20024;-66
2024/01/23 07:32:00;;;;;;;10.73;3.20;;;2.90;99.90;;;;;;4945650;28;20419;-66
2024/01/23 07:34:26;;;;;;;16.63;4.35;;;3.10;99.90;;;;;;4946941;28;20039;-66
2024/01/23 07:36:52;;;;;;;12.27;2.85;;;3.40;99.90;;;;;;4947456;28;20026;-65
2024/01/23 07:39:17;;;;;;;13.98;3.50;;;3.50;99.90;;;;;;4947416;28;20054;-65
2024/01/23 07:41:43;;;;;;;12.77;2.33;;;3.60;99.90;;;;;;4947569;28;20099;-65
2024/01/23 07:44:09;;;;;;;15.13;2.25;;;3.70;99.90;;;;;;4939674;28;20467;-66
2024/01/23 07:46:35;;;;;;;17.08;7.05;;;3.80;99.90;;;;;;4946592;28;20096;-67
2024/01/23 07:49:01;;;;;;;12.57;2.95;;;3.90;99.90;;;;;;4946037;28;20063;-65
2024/01/23 07:51:27;;;;;;;13.88;1.77;;;4.00;99.90;;;;;;4948531;28;20110;-66
2024/01/23 07:53:53;;;;;;;7.78;2.35;;;4.10;99.90;;;;;;4946848;28;20034;-65
2024/01/23 07:56:19;;;;;;;12.77;2.33;;;4.10;99.90;;;;;;4944105;28;20055;-65
2024/01/23 07:58:45;;;;;;;12.60;1.80;;;4.10;99.90;;;;;;4945598;28;20042;-65
2024/01/23 08:01:11;;;;;;;10.57;2.08;;;4.20;99.90;;;;;;4947576;28;20098;-65
2024/01/23 08:03:36;;;;;;;13.93;5.45;;;4.30;99.90;;;;;;4948886;28;20659;-66
2024/01/23 08:06:02;;;;;;;8.20;2.05;;;4.30;99.90;;;;;;4951665;28;20035;-65
2024/01/23 08:08:28;;;;;;;11.73;3.53;;;4.30;99.90;;;;;;4948829;28;20032;-65
2024/01/23 08:10:54;;;;;;;6.35;1.38;;;4.30;99.90;;;;;;4950555;28;20110;-66
2024/01/23 08:13:20;;;;;;;11.85;4.90;;;4.30;99.90;;;;;;4954937;28;20145;-65
2024/01/23 08:15:47;;;;;;;19.52;2.47;;;4.30;99.90;;;;;;4965135;28;20129;-67
2024/01/23 08:18:13;;;;;;;12.45;1.65;;;4.30;99.90;;;;;;4953052;28;20491;-66
2024/01/23 08:20:39;;;;;;;6.93;1.65;;;4.30;99.90;;;;;;4952273;28;20090;-65
2024/01/23 08:23:05;;;;;;;8.25;1.88;;;4.40;99.90;;;;;;4950356;28;20019;-65
2024/01/23 08:25:31;;;;;;;12.85;1.75;;;4.50;99.90;;;;;;4954993;28;20026;-65
2024/01/23 08:27:57;;;;;;;9.95;3.30;;;4.60;99.90;;;;;;4952458;28;20078;-66
2024/01/23 08:30:22;;;;;;;4.78;1.50;;;4.60;99.90;;;;;;4949832;28;20027;-65
2024/01/23 08:32:48;;;;;;;7.57;1.45;;;4.70;99.90;;;;;;4953719;28;20023;-65
2024/01/23 08:35:15;;;;;;;9.57;1.23;;;4.80;99.90;;;;;;4946206;28;20055;-64
2024/01/23 08:37:41;;;;;;;12.70;2.00;;;4.80;99.90;;;;;;4947123;28;20850;-66
2024/01/23 08:40:07;;;;;;;9.82;2.60;;;4.90;99.90;;;;;;4947692;28;20035;-65
2024/01/23 08:42:33;;;;;;;6.47;1.27;;;5.00;99.90;;;;;;4952781;28;20526;-65
2024/01/23 08:44:58;;;;;;;9.10;1.25;;;4.90;99.90;;;;;;4954239;28;20032;-65
2024/01/23 08:47:24;;;;;;;10.13;3.05;;;5.00;99.90;;;;;;4949626;28;20039;-65
2024/01/23 08:49:49;;;;;;;5.00;1.10;;;5.00;99.90;;;;;;4953221;28;20073;-65
2024/01/23 08:52:16;;;;;;;6.85;1.20;;;5.10;99.90;;;;;;4955291;28;20050;-66
2024/01/23 08:54:41;;;;;;;6.03;1.52;;;5.10;99.90;;;;;;4957874;28;20036;-65
2024/01/23 08:57:09;;;;;;;6.15;1.30;;;5.20;99.90;;;;;;4956696;28;20391;-66
2024/01/23 08:59:37;;;;;;;10.68;1.65;;;5.20;99.90;;;;;;4952007;28;20029;-66
2024/01/23 09:02:04;;;;;;;4.40;1.13;;;5.20;99.90;;;;;;4952413;28;20019;-65
2024/01/23 09:04:30;;;;;;;9.95;2.15;;;5.20;99.90;;;;;;4966600;28;20020;-66
2024/01/23 09:06:55;;;;;;;2.95;0.88;;;5.30;99.90;;;;;;4949462;28;20506;-65
2024/01/23 09:09:21;;;;;;;6.82;1.30;;;5.30;99.90;;;;;;4949710;28;20036;-66
2024/01/23 09:11:46;;;;;;;8.38;2.08;;;5.30;99.90;;;;;;4951224;28;20019;-65
2024/01/23 09:14:15;;;;;;;7.88;1.27;;;5.40;99.90;;;;;;4952393;28;20038;-65
2024/01/23 09:16:40;;;;;;;8.98;2.05;;;5.50;99.90;;;;;;4947064;28;20102;-66
2024/01/23 09:19:06;;;;;;;8.65;1.45;;;5.50;99.90;;;;;;4950912;28;20194;-66
2024/01/23 09:21:31;;;;;;;11.25;2.90;;;5.60;99.90;;;;;;4946253;28;20035;-66
2024/01/23 09:23:58;;;;;;;12.27;1.30;;;5.60;99.90;;;;;;4952551;28;20035;-65
2024/01/23 09:26:23;;;;;;;18.42;3.17;;;5.60;99.90;;;;;;4949157;28;20042;-66
2024/01/23 09:28:49;;;;;;;9.15;1.52;;;5.80;99.90;;;;;;4951236;28;20023;-66
2024/01/23 09:31:14;;;;;;;6.20;1.60;;;5.90;99.90;;;;;;4949602;28;20114;-65
2024/01/23 09:33:40;;;;;;;5.50;1.70;;;6.00;99.90;;;;;;4948698;28;20387;-66
2024/01/23 09:36:08;;;;;;;9.00;1.40;;;6.10;99.90;;;;;;4949274;28;20409;-67
2024/01/23 09:38:33;;;;;;;11.43;1.85;;;6.10;99.90;;;;;;4950737;28;20023;-64
2024/01/23 09:41:08;;;;;;;12.02;2.00;;;6.00;99.90;;;;;;4950083;28;20027;-66
2024/01/23 09:43:35;;;;;;;30.40;3.40;;;6.00;99.90;;;;;;4951287;28;20019;-66
2024/01/23 09:46:04;;;;;;;9.35;1.77;;;6.00;99.90;;;;;;4951984;28;20071;-66
2024/01/23 09:48:31;;;;;;;5.75;1.52;;;6.10;99.90;;;;;;4952514;28;20035;-65
2024/01/23 09:50:58;;;;;;;7.53;1.58;;;6.10;99.90;;;;;;4950836;28;20261;-65
2024/01/23 09:53:25;;;;;;;9.23;1.70;;;6.10;99.90;;;;;;4954997;28;20037;-65
2024/01/23 09:55:51;;;;;;;10.32;1.77;;;6.10;99.90;;;;;;4952119;28;20063;-66
2024/01/23 09:58:16;;;;;;;10.27;2.20;;;6.10;99.90;;;;;;4948340;28;20062;-65
2024/01/23 10:00:42;;;;;;;8.10;2.25;;;6.10;99.90;;;;;;4946495;28;20042;-65
2024/01/23 10:03:10;;;;;;;8.20;2.17;;;6.10;99.90;;;;;;4950114;28;20491;-65
2024/01/23 10:05:36;;;;;;;5.50;1.80;;;6.00;99.90;;;;;;4950909;28;20155;-65
2024/01/23 10:08:01;;;;;;;12.75;1.23;;;6.00;99.90;;;;;;4949526;28;20536;-65
2024/01/23 10:10:29;;;;;;;7.70;1.40;;;6.10;99.90;;;;;;4949673;28;20027;-66
2024/01/23 10:12:55;;;;;;;5.45;1.48;;;6.10;99.90;;;;;;4950473;28;20364;-65
2024/01/23 10:15:23;;;;;;;5.30;1.95;;;6.00;99.90;;;;;;4950209;28;20115;-64
2024/01/23 10:17:49;;;;;;;9.40;1.42;;;6.00;99.90;;;;;;4954856;28;20026;-65
2024/01/23 10:20:16;;;;;;;7.00;1.60;;;6.00;99.90;;;;;;4955336;28;20630;-65
2024/01/23 10:22:47;;;;;;;7.50;1.42;;;6.00;99.90;;;;;;4953162;28;20023;-66
2024/01/23 10:25:20;;;;;;;9.45;1.67;;;6.00;99.90;;;;;;4942850;28;20067;-65
2024/01/23 10:27:51;;;;;;;7.47;1.65;;;6.00;99.90;;;;;;4944057;28;20057;-66
2024/01/23 10:30:17;;;;;;;9.63;1.85;;;6.00;99.90;;;;;;4955575;28;20030;-64
2024/01/23 10:32:42;;;;;;;7.63;2.55;;;6.00;99.90;;;;;;4949553;28;20039;-65
2024/01/23 10:35:11;;;;;;;6.38;1.70;;;6.00;99.90;;;;;;4956641;28;20813;-66
2024/01/23 10:37:38;;;;;;;6.60;1.38;;;6.00;99.90;;;;;;4944075;28;20027;-64
2024/01/23 10:40:05;;;;;;;11.68;2.15;;;6.00;99.90;;;;;;4945208;28;20038;-67
2024/01/23 10:42:32;;;;;;;6.43;1.60;;;6.00;99.90;;;;;;4949848;28;20552;-65
2024/01/23 10:44:59;;;;;;;6.97;1.02;;;6.10;99.90;;;;;;4945462;28;20042;-65
2024/01/23 10:47:25;;;;;;;12.45;1.70;;;6.10;99.90;;;;;;4946456;28;20174;-64
2024/01/23 10:49:51;;;;;;;8.75;1.90;;;6.10;99.90;;;;;;4948697;28;20102;-67
2024/01/23 10:52:18;;;;;;;7.10;1.60;;;6.20;99.90;;;;;;4946196;28;20180;-67
2024/01/23 10:54:46;;;;;;;6.88;1.45;;;6.20;99.90;;;;;;4950089;28;20055;-64
2024/01/23 10:57:24;;;;;;;7.25;1.33;;;6.30;99.90;;;;;;4948152;28;20047;-65
2024/01/23 10:59:51;;;;;;;10.50;1.90;;;6.40;99.90;;;;;;4949324;28;20122;-65
2024/01/23 11:02:39;;;;;;;9.15;1.50;;;6.40;99.90;;;;;;4948961;28;20110;-65
2024/01/23 11:05:06;;;;;;;5.60;1.30;;;6.50;99.90;;;;;;4944763;28;20024;-64
2024/01/23 11:07:47;;;;;;;10.68;2.50;;;6.50;99.90;;;;;;4947862;28;20059;-65
2024/01/23 11:10:26;;;;;;;12.77;1.75;;;6.60;99.90;;;;;;4945233;28;20028;-68
2024/01/23 11:13:23;;;;;;;10.32;1.30;;;6.60;99.90;;;;;;4947522;28;20109;-64
2024/01/23 11:15:48;;;;;;;8.38;1.70;;;6.70;99.90;;;;;;4945376;28;20170;-65
2024/01/23 11:18:32;;;;;;;4.72;1.63;;;6.70;99.90;;;;;;4947916;28;20122;-65
2024/01/23 11:21:13;;;;;;;7.40;1.30;;;6.70;99.90;;;;;;4949507;28;20023;-63
2024/01/23 11:23:40;;;;;;;6.05;1.90;;;6.80;99.90;;;;;;4950299;28;20507;-65
2024/01/23 11:26:14;;;;;;;9.00;1.55;;;6.80;99.90;;;;;;4948678;28;20030;-67
2024/01/23 11:28:45;;;;;;;7.32;1.50;;;6.90;99.90;;;;;;4949474;28;20029;-65
2024/01/23 11:31:16;;;;;;;8.02;1.20;;;6.90;99.90;;;;;;4948391;28;20030;-65
2024/01/23 11:33:43;;;;;;;5.47;1.90;;;6.90;99.90;;;;;;4949277;28;20031;-67
2024/01/23 11:36:08;;;;;;;10.82;2.95;;;6.90;99.90;;;;;;4947945;28;20122;-65
2024/01/23 11:38:44;;;;;;;7.50;1.88;;;6.90;99.90;;;;;;4946501;28;20106;-66
2024/01/23 11:41:27;;;;;;;7.57;1.85;;;7.00;99.90;;;;;;4948554;28;20053;-66
2024/01/23 11:44:15;;;;;;;5.82;1.40;;;7.00;99.90;;;;;;4950944;28;20027;-66
2024/01/23 11:46:41;;;;;;;9.10;2.47;;;7.10;99.90;;;;;;4947227;28;20030;-66
2024/01/23 11:49:07;;;;;;;12.05;1.67;;;7.20;99.90;;;;;;4951822;28;20135;-65
2024/01/23 11:51:37;;;;;;;6.78;1.45;;;7.20;99.90;;;;;;4950852;28;20120;-66
2024/01/23 11:54:07;;;;;;;6.75;1.35;;;7.20;99.90;;;;;;4948240;28;20031;-66
2024/01/23 11:56:33;;;;;;;7.38;1.30;;;7.30;99.90;;;;;;4946362;28;20035;-64
2024/01/23 11:58:59;;;;;;;4.43;1.15;;;7.40;99.90;;;;;;4949628;28;20034;-64
2024/01/23 12:01:29;;;;;;;6.55;1.98;;;7.30;99.90;;;;;;4942563;28;20028;-65
2024/01/23 12:03:55;;;;;;;6.90;2.20;;;7.30;99.90;;;;;;4944465;28;20442;-64
2024/01/23 12:06:22;;;;;;;9.15;1.75;;;7.40;99.90;;;;;;4947670;28;20027;-65
2024/01/23 12:08:48;;;;;;;12.48;1.70;;;7.40;99.90;;;;;;4948521;28;20054;-65
2024/01/23 12:11:16;;;;;;;8.70;1.50;;;7.50;99.90;;;;;;4949004;28;20031;-65
2024/01/23 12:13:49;;;;;;;6.25;3.05;;;7.50;99.90;;;;;;4948022;28;20042;-65
2024/01/23 12:16:16;;;;;;;5.50;2.28;;;7.60;99.90;;;;;;4946907;28;20043;-66
2024/01/23 12:18:42;;;;;;;3.13;0.95;;;7.90;99.90;;;;;;4946999;28;20035;-63
2024/01/23 12:21:09;;;;;;;11.75;1.73;;;8.20;99.90;;;;;;4948594;28;20036;-66
2024/01/23 12:23:35;;;;;;;7.15;1.50;;;8.40;99.90;;;;;;4948738;28;20039;-64
2024/01/23 12:26:03;;;;;;;4.82;2.00;;;8.70;99.90;;;;;;4948208;28;20034;-63
2024/01/23 12:28:29;;;;;;;5.53;1.40;;;8.90;99.90;;;;;;4948165;28;20038;-65
2024/01/23 12:30:55;;;;;;;14.05;2.97;;;8.90;99.90;;;;;;4948316;28;20476;-65
2024/01/23 12:33:21;;;;;;;5.25;1.40;;;9.00;99.90;;;;;;4946956;28;20069;-65
2024/01/23 12:35:48;;;;;;;4.88;1.77;;;8.80;99.90;;;;;;4948964;28;20053;-65
2024/01/23 12:38:14;;;;;;;10.02;1.40;;;8.80;99.90;;;;;;4949453;28;20134;-65
2024/01/23 12:40:41;;;;;;;8.00;2.22;;;8.80;99.90;;;;;;4947158;28;20019;-64
2024/01/23 12:43:08;;;;;;;6.72;2.13;;;8.90;99.90;;;;;;4945395;28;20042;-66
2024/01/23 12:45:34;;;;;;;6.25;1.42;;;8.80;99.90;;;;;;4945910;28;20059;-64
2024/01/23 12:48:00;;;;;;;3.28;1.20;;;8.80;99.90;;;;;;4947892;28;20067;-64
2024/01/23 12:50:26;;;;;;;8.43;1.40;;;8.80;99.90;;;;;;4948401;28;20039;-65
2024/01/23 12:52:53;;;;;;;8.75;1.25;;;8.60;99.90;;;;;;4952481;28;20055;-65